createdAt,value
2024-03-06T00:00:03.472Z,101727.88
2024-03-06T00:00:17.280Z,101739.38
2024-03-06T00:00:52.663Z,101739.31
2024-03-06T00:01:26.004Z,101731.34
2024-03-06T00:01:39.113Z,101732.28
2024-03-06T00:01:52.325Z,101731.34
2024-03-06T00:02:05.496Z,101729.63
2024-03-06T00:02:18.494Z,101726.00
2024-03-06T00:02:31.581Z,101732.28
2024-03-06T00:02:46.212Z,101729.63
2024-03-06T00:02:59.143Z,101725.22
2024-03-06T00:03:12.347Z,101731.34
2024-03-06T00:03:25.432Z,101721.63
2024-03-06T00:03:38.447Z,101732.28
2024-03-06T00:03:51.484Z,101730.47
2024-03-06T00:04:05.613Z,101724.31
2024-03-06T00:04:20.250Z,101718.09
2024-03-06T00:04:34.490Z,101721.63
2024-03-06T00:04:47.598Z,101727.88
2024-03-06T00:05:00.962Z,101725.22
2024-03-06T00:05:14.447Z,101730.53
2024-03-06T00:05:27.537Z,101725.22
2024-03-06T00:05:40.508Z,101730.53
2024-03-06T00:05:53.422Z,101729.69
2024-03-06T00:06:07.001Z,101733.22
2024-03-06T00:06:19.982Z,101733.22
2024-03-06T00:06:33.071Z,101735.00
2024-03-06T00:06:46.013Z,101727.94
2024-03-06T00:07:00.760Z,101728.84
2024-03-06T00:07:13.921Z,101732.34
2024-03-06T00:07:27.550Z,101732.34
2024-03-06T00:07:41.257Z,101738.59
2024-03-06T00:07:54.296Z,101734.16
2024-03-06T00:08:07.955Z,101734.16
2024-03-06T00:08:20.889Z,101725.28
2024-03-06T00:08:34.860Z,101727.09
2024-03-06T00:08:48.175Z,101731.50
2024-03-06T00:09:01.235Z,101735.09
2024-03-06T00:09:14.502Z,101731.50
2024-03-06T00:09:28.401Z,101729.75
2024-03-06T00:09:41.382Z,101727.88
2024-03-06T00:09:54.477Z,101732.34
2024-03-06T00:10:09.600Z,101731.50
2024-03-06T00:10:22.557Z,101727.88
2024-03-06T00:10:35.599Z,101723.50
2024-03-06T00:10:48.814Z,101731.41
2024-03-06T00:11:01.941Z,101729.63
2024-03-06T00:11:15.110Z,101727.88
2024-03-06T00:11:28.210Z,101728.75
2024-03-06T00:11:41.594Z,101725.22
2024-03-06T00:11:54.813Z,101719.84
2024-03-06T00:12:09.081Z,101722.50
2024-03-06T00:12:22.537Z,101723.34
2024-03-06T00:12:35.739Z,101726.00
2024-03-06T00:12:48.927Z,101726.00
2024-03-06T00:13:01.934Z,101720.69
2024-03-06T00:13:14.988Z,101731.34
2024-03-06T00:13:27.989Z,101724.19
2024-03-06T00:13:41.981Z,101725.94
2024-03-06T00:13:55.179Z,101724.13
2024-03-06T00:14:08.290Z,101725.94
2024-03-06T00:14:22.960Z,101722.44
2024-03-06T00:14:37.819Z,101722.44
2024-03-06T00:14:50.892Z,101721.47
2024-03-06T00:15:04.604Z,101719.66
2024-03-06T00:15:18.670Z,101727.66
2024-03-06T00:15:31.603Z,101726.78
2024-03-06T00:15:44.904Z,101729.47
2024-03-06T00:15:59.456Z,101727.66
2024-03-06T00:16:12.475Z,101726.78
2024-03-06T00:16:25.498Z,101720.50
2024-03-06T00:16:39.396Z,101726.72
2024-03-06T00:16:52.535Z,101720.50
2024-03-06T00:17:07.271Z,101726.72
2024-03-06T00:17:20.340Z,101727.59
2024-03-06T00:17:33.378Z,101721.41
2024-03-06T00:17:47.409Z,101729.28
2024-03-06T00:18:01.125Z,101727.59
2024-03-06T00:18:14.349Z,101729.28
2024-03-06T00:18:27.365Z,101721.31
2024-03-06T00:18:41.400Z,101729.28
2024-03-06T00:18:54.352Z,101727.50
2024-03-06T00:19:07.452Z,101727.59
2024-03-06T00:19:21.722Z,101723.97
2024-03-06T00:19:36.195Z,101731.94
2024-03-06T00:19:49.284Z,101732.84
2024-03-06T00:20:02.355Z,101726.72
2024-03-06T00:20:15.676Z,101724.06
2024-03-06T00:20:29.404Z,101727.59
2024-03-06T00:20:43.587Z,101733.81
2024-03-06T00:20:56.582Z,101730.25
2024-03-06T00:21:10.922Z,101726.72
2024-03-06T00:21:24.874Z,101734.72
2024-03-06T00:21:37.836Z,101732.91
2024-03-06T00:21:50.857Z,101738.28
2024-03-06T00:22:04.871Z,101735.63
2024-03-06T00:22:20.555Z,101732.97
2024-03-06T00:22:35.022Z,101732.91
2024-03-06T00:22:48.223Z,101740.88
2024-03-06T00:23:01.175Z,101741.81
2024-03-06T00:23:14.507Z,101737.38
2024-03-06T00:23:28.482Z,101740.03
2024-03-06T00:23:41.445Z,101740.03
2024-03-06T00:23:54.370Z,101740.03
2024-03-06T00:24:07.854Z,101734.72
2024-03-06T00:24:20.890Z,101743.53
2024-03-06T00:24:33.949Z,101740.03
2024-03-06T00:24:46.893Z,101739.16
2024-03-06T00:24:59.830Z,101743.53
2024-03-06T00:25:14.011Z,101737.38
2024-03-06T00:25:27.027Z,101736.47
2024-03-06T00:25:40.036Z,101737.38
2024-03-06T00:25:53.129Z,101739.16
2024-03-06T00:26:06.198Z,101742.69
2024-03-06T00:26:19.236Z,101738.28
2024-03-06T00:26:32.180Z,101742.69
2024-03-06T00:26:46.406Z,101733.81
2024-03-06T00:26:59.288Z,101735.56
2024-03-06T00:27:13.274Z,101741.75
2024-03-06T00:27:26.183Z,101745.25
2024-03-06T00:27:39.202Z,101741.81
2024-03-06T00:27:52.152Z,101743.53
2024-03-06T00:28:05.821Z,101740.88
2024-03-06T00:28:18.858Z,101740.88
2024-03-06T00:28:31.949Z,101742.59
2024-03-06T00:28:44.913Z,101746.13
2024-03-06T00:28:58.068Z,101735.50
2024-03-06T00:29:11.195Z,101747.00
2024-03-06T00:29:25.245Z,101733.69
2024-03-06T00:29:39.352Z,101736.34
2024-03-06T00:29:52.311Z,101745.19
2024-03-06T00:30:08.131Z,101743.38
2024-03-06T00:30:21.189Z,101745.13
2024-03-06T00:30:34.237Z,101738.06
2024-03-06T00:30:47.181Z,101743.38
2024-03-06T00:31:01.516Z,101739.78
2024-03-06T00:31:15.628Z,101745.13
2024-03-06T00:31:28.622Z,101731.81
2024-03-06T00:31:44.634Z,101745.13
2024-03-06T00:31:57.647Z,101742.47
2024-03-06T00:32:10.776Z,101737.97
2024-03-06T00:32:24.829Z,101737.13
2024-03-06T00:32:38.876Z,101738.84
2024-03-06T00:32:51.836Z,101746.81
2024-03-06T00:33:05.177Z,101740.56
2024-03-06T00:33:18.920Z,101737.06
2024-03-06T00:33:31.949Z,101741.50
2024-03-06T00:33:44.893Z,101738.84
2024-03-06T00:33:58.037Z,101738.84
2024-03-06T00:34:11.492Z,101749.47
2024-03-06T00:34:24.454Z,101743.31
2024-03-06T00:34:38.612Z,101745.97
2024-03-06T00:34:51.645Z,101749.47
2024-03-06T00:35:05.353Z,101738.84
2024-03-06T00:35:18.545Z,101743.31
2024-03-06T00:35:31.508Z,101748.63
2024-03-06T00:35:44.568Z,101745.97
2024-03-06T00:35:57.559Z,101747.72
2024-03-06T00:36:10.591Z,101746.81
2024-03-06T00:36:23.914Z,101746.81
2024-03-06T00:36:37.037Z,101747.72
2024-03-06T00:36:51.505Z,101750.38
2024-03-06T00:37:04.700Z,101741.50
2024-03-06T00:37:17.692Z,101751.22
2024-03-06T00:37:30.620Z,101745.06
2024-03-06T00:37:43.666Z,101748.56
2024-03-06T00:37:56.624Z,101748.56
2024-03-06T00:38:09.693Z,101745.91
2024-03-06T00:38:22.796Z,101751.22
2024-03-06T00:38:36.877Z,101751.22
2024-03-06T00:38:49.841Z,101751.22
2024-03-06T00:39:05.793Z,101748.56
2024-03-06T00:39:18.757Z,101752.94
2024-03-06T00:39:31.757Z,101744.94
2024-03-06T00:39:44.736Z,101757.34
2024-03-06T00:39:57.768Z,101744.09
2024-03-06T00:40:13.120Z,101752.00
2024-03-06T00:40:26.113Z,101752.00
2024-03-06T00:40:39.184Z,101745.81
2024-03-06T00:40:52.298Z,101752.00
2024-03-06T00:41:05.432Z,101753.78
2024-03-06T00:41:19.032Z,101753.78
2024-03-06T00:41:32.035Z,101750.19
2024-03-06T00:41:45.008Z,101752.88
2024-03-06T00:41:57.973Z,101752.88
2024-03-06T00:42:14.975Z,101753.72
2024-03-06T00:42:28.097Z,101757.22
2024-03-06T00:42:42.505Z,101754.56
2024-03-06T00:42:55.444Z,101754.56
2024-03-06T00:43:08.511Z,101747.47
2024-03-06T00:43:21.564Z,101752.78
2024-03-06T00:43:34.529Z,101744.81
2024-03-06T00:43:47.777Z,101754.56
2024-03-06T00:44:00.836Z,101745.66
2024-03-06T00:44:15.050Z,101752.78
2024-03-06T00:44:28.047Z,101758.13
2024-03-06T00:44:41.096Z,101758.13
2024-03-06T00:44:54.098Z,101756.31
2024-03-06T00:45:07.659Z,101752.69
2024-03-06T00:45:20.599Z,101760.78
2024-03-06T00:45:33.672Z,101751.91
2024-03-06T00:45:46.760Z,101753.66
2024-03-06T00:46:01.082Z,101760.78
2024-03-06T00:46:15.180Z,101753.72
2024-03-06T00:46:28.156Z,101747.47
2024-03-06T00:46:41.178Z,101757.22
2024-03-06T00:46:54.197Z,101758.13
2024-03-06T00:47:07.313Z,101758.13
2024-03-06T00:47:21.330Z,101754.56
2024-03-06T00:47:35.991Z,101756.31
2024-03-06T00:47:50.134Z,101753.72
2024-03-06T00:48:03.251Z,101750.13
2024-03-06T00:48:16.196Z,101747.47
2024-03-06T00:48:29.144Z,101752.78
2024-03-06T00:48:42.432Z,101755.47
2024-03-06T00:48:55.459Z,101758.13
2024-03-06T00:49:08.413Z,101755.47
2024-03-06T00:49:21.413Z,101750.13
2024-03-06T00:49:35.567Z,101755.47
2024-03-06T00:49:48.703Z,101751.06
2024-03-06T00:50:01.874Z,101757.16
2024-03-06T00:50:15.246Z,101747.47
2024-03-06T00:50:28.278Z,101748.31
2024-03-06T00:50:41.353Z,101748.31
2024-03-06T00:50:54.590Z,101753.66
2024-03-06T00:51:08.374Z,101750.03
2024-03-06T00:51:29.713Z,101752.78
2024-03-06T00:51:51.029Z,101761.56
2024-03-06T00:52:05.473Z,101748.31
2024-03-06T00:52:18.470Z,101744.81
2024-03-06T00:52:31.461Z,101751.84
2024-03-06T00:52:44.543Z,101750.03
2024-03-06T00:52:57.600Z,101757.16
2024-03-06T00:53:10.759Z,101747.38
2024-03-06T00:53:23.866Z,101747.38
2024-03-06T00:53:38.129Z,101749.19
2024-03-06T00:53:51.090Z,101749.19
2024-03-06T00:54:04.147Z,101746.50
2024-03-06T00:54:18.056Z,101749.19
2024-03-06T00:54:31.955Z,101746.50
2024-03-06T00:54:45.033Z,101753.66
2024-03-06T00:54:57.979Z,101745.66
2024-03-06T00:55:11.320Z,101747.38
2024-03-06T00:55:24.293Z,101751.00
2024-03-06T00:55:37.325Z,101744.81
2024-03-06T00:55:50.530Z,101745.66
2024-03-06T00:56:05.440Z,101747.47
2024-03-06T00:56:18.485Z,101758.13
2024-03-06T00:56:32.311Z,101749.19
2024-03-06T00:56:45.300Z,101751.84
2024-03-06T00:56:58.754Z,101752.78
2024-03-06T00:57:11.924Z,101748.31
2024-03-06T00:57:25.343Z,101754.56
2024-03-06T00:57:38.492Z,101753.72
2024-03-06T00:57:51.839Z,101762.56
2024-03-06T00:58:05.190Z,101759.91
2024-03-06T00:58:19.306Z,101751.91
2024-03-06T00:58:32.379Z,101757.22
2024-03-06T00:58:45.516Z,101755.47
2024-03-06T00:58:58.716Z,101759.03
2024-03-06T00:59:12.142Z,101760.78
2024-03-06T00:59:25.298Z,101757.22
2024-03-06T00:59:40.408Z,101760.78
2024-03-06T00:59:53.399Z,101756.31
2024-03-06T01:00:11.787Z,101760.78
2024-03-06T01:00:24.984Z,101762.47
2024-03-06T01:00:38.070Z,101755.47
2024-03-06T01:00:51.302Z,101755.47
2024-03-06T01:01:05.902Z,101762.47
2024-03-06T01:01:22.277Z,101758.03
2024-03-06T01:01:35.266Z,101755.47
2024-03-06T01:01:48.405Z,101759.81
2024-03-06T01:02:01.772Z,101758.13
2024-03-06T01:02:15.920Z,101762.47
2024-03-06T01:02:28.957Z,101762.47
2024-03-06T01:02:42.351Z,101768.66
2024-03-06T01:02:55.360Z,101761.63
2024-03-06T01:03:08.405Z,101761.63
2024-03-06T01:03:21.453Z,101755.47
2024-03-06T01:03:34.605Z,101759.03
2024-03-06T01:03:47.611Z,101764.28
2024-03-06T01:04:01.963Z,101760.78
2024-03-06T01:04:14.991Z,101761.63
2024-03-06T01:04:28.148Z,101759.91
2024-03-06T01:04:41.827Z,101761.63
2024-03-06T01:04:55.255Z,101766.09
2024-03-06T01:05:08.858Z,101765.22
2024-03-06T01:05:22.040Z,101766.09
2024-03-06T01:05:35.177Z,101768.75
2024-03-06T01:05:49.428Z,101763.44
2024-03-06T01:06:02.623Z,101765.22
2024-03-06T01:06:15.634Z,101762.47
2024-03-06T01:06:28.680Z,101759.03
2024-03-06T01:06:41.697Z,101757.22
2024-03-06T01:06:54.702Z,101756.38
2024-03-06T01:07:08.243Z,101754.56
2024-03-06T01:07:22.260Z,101759.91
2024-03-06T01:07:35.898Z,101763.44
2024-03-06T01:07:48.999Z,101755.47
2024-03-06T01:08:02.187Z,101759.81
2024-03-06T01:08:16.805Z,101759.03
2024-03-06T01:08:31.818Z,101761.63
2024-03-06T01:08:44.799Z,101757.16
2024-03-06T01:08:59.709Z,101757.16
2024-03-06T01:09:12.859Z,101750.13
2024-03-06T01:09:28.382Z,101758.97
2024-03-06T01:09:41.423Z,101754.56
2024-03-06T01:09:54.405Z,101748.31
2024-03-06T01:10:09.483Z,101755.47
2024-03-06T01:10:22.709Z,101746.50
2024-03-06T01:10:35.734Z,101760.78
2024-03-06T01:10:49.094Z,101757.22
2024-03-06T01:11:02.150Z,101756.31
2024-03-06T01:11:16.820Z,101758.13
2024-03-06T01:11:29.801Z,101757.22
2024-03-06T01:11:42.803Z,101762.56
2024-03-06T01:11:55.867Z,101759.91
2024-03-06T01:12:09.260Z,101761.63
2024-03-06T01:12:22.382Z,101758.13
2024-03-06T01:12:35.526Z,101758.97
2024-03-06T01:12:48.504Z,101755.47
2024-03-06T01:13:01.547Z,101760.78
2024-03-06T01:13:15.637Z,101758.13
2024-03-06T01:13:28.749Z,101760.78
2024-03-06T01:13:41.953Z,101759.81
2024-03-06T01:13:55.661Z,101760.78
2024-03-06T01:14:08.796Z,101760.78
2024-03-06T01:14:21.938Z,101761.63
2024-03-06T01:14:37.186Z,101764.28
2024-03-06T01:14:52.180Z,101760.78
2024-03-06T01:15:06.224Z,101763.44
2024-03-06T01:15:19.519Z,101760.78
2024-03-06T01:15:32.704Z,101766.97
2024-03-06T01:15:46.021Z,101761.63
2024-03-06T01:15:59.313Z,101766.09
2024-03-06T01:16:13.863Z,101760.78
2024-03-06T01:16:26.862Z,101767.81
2024-03-06T01:16:40.883Z,101761.63
2024-03-06T01:16:53.944Z,101766.09
2024-03-06T01:17:07.626Z,101770.53
2024-03-06T01:17:20.712Z,101760.78
2024-03-06T01:17:33.750Z,101766.09
2024-03-06T01:17:46.794Z,101762.56
2024-03-06T01:17:59.940Z,101761.63
2024-03-06T01:18:13.361Z,101765.22
2024-03-06T01:18:27.317Z,101767.88
2024-03-06T01:18:40.333Z,101768.75
2024-03-06T01:18:53.259Z,101766.09
2024-03-06T01:19:06.228Z,101759.91
2024-03-06T01:19:19.461Z,101763.44
2024-03-06T01:19:32.412Z,101763.44
2024-03-06T01:19:45.670Z,101761.69
2024-03-06T01:20:00.465Z,101765.22
2024-03-06T01:20:13.644Z,101770.53
2024-03-06T01:20:27.694Z,101762.66
2024-03-06T01:20:41.548Z,101764.38
2024-03-06T01:20:54.518Z,101757.34
2024-03-06T01:21:07.565Z,101760.00
2024-03-06T01:21:20.601Z,101767.97
2024-03-06T01:21:35.660Z,101760.00
2024-03-06T01:21:49.787Z,101765.31
2024-03-06T01:22:03.737Z,101766.25
2024-03-06T01:22:16.774Z,101766.25
2024-03-06T01:22:29.715Z,101766.25
2024-03-06T01:22:42.772Z,101760.06
2024-03-06T01:22:56.090Z,101760.06
2024-03-06T01:23:09.261Z,101763.56
2024-03-06T01:23:22.277Z,101770.72
2024-03-06T01:23:35.228Z,101764.53
2024-03-06T01:23:48.289Z,101767.19
2024-03-06T01:24:02.409Z,101767.19
2024-03-06T01:24:15.489Z,101769.84
2024-03-06T01:24:28.478Z,101763.69
2024-03-06T01:24:41.627Z,101776.09
2024-03-06T01:24:54.594Z,101768.13
2024-03-06T01:25:08.466Z,101764.59
2024-03-06T01:25:21.944Z,101770.72
2024-03-06T01:25:34.892Z,101771.72
2024-03-06T01:25:47.870Z,101769.00
2024-03-06T01:26:01.991Z,101769.84
2024-03-06T01:26:15.198Z,101769.00
2024-03-06T01:26:28.463Z,101768.13
2024-03-06T01:26:41.928Z,101769.00
2024-03-06T01:26:54.869Z,101765.44
2024-03-06T01:27:07.890Z,101768.13
2024-03-06T01:27:20.787Z,101769.84
2024-03-06T01:27:33.734Z,101769.84
2024-03-06T01:27:46.625Z,101779.53
2024-03-06T01:27:59.676Z,101770.78
2024-03-06T01:28:13.895Z,101769.84
2024-03-06T01:28:27.339Z,101772.50
2024-03-06T01:28:40.581Z,101771.56
2024-03-06T01:28:54.190Z,101771.66
2024-03-06T01:29:07.464Z,101773.38
2024-03-06T01:29:20.691Z,101766.34
2024-03-06T01:29:33.938Z,101765.38
2024-03-06T01:29:47.634Z,101770.63
2024-03-06T01:30:00.876Z,101766.25
2024-03-06T01:30:15.080Z,101771.56
2024-03-06T01:30:28.079Z,101773.31
2024-03-06T01:30:41.315Z,101769.69
2024-03-06T01:30:54.313Z,101767.97
2024-03-06T01:31:11.010Z,101775.00
2024-03-06T01:31:25.328Z,101769.69
2024-03-06T01:31:38.619Z,101773.19
2024-03-06T01:31:51.687Z,101771.44
2024-03-06T01:32:05.295Z,101770.53
2024-03-06T01:32:18.579Z,101773.13
2024-03-06T01:32:34.360Z,101773.13
2024-03-06T01:32:47.618Z,101770.47
2024-03-06T01:33:00.666Z,101769.63
2024-03-06T01:33:13.827Z,101778.47
2024-03-06T01:33:27.877Z,101772.22
2024-03-06T01:33:40.843Z,101772.22
2024-03-06T01:33:53.779Z,101774.88
2024-03-06T01:34:07.733Z,101774.88
2024-03-06T01:34:20.680Z,101774.88
2024-03-06T01:34:33.772Z,101773.91
2024-03-06T01:34:46.912Z,101775.72
2024-03-06T01:34:59.866Z,101780.09
2024-03-06T01:35:12.990Z,101780.97
2024-03-06T01:35:26.084Z,101777.38
2024-03-06T01:35:39.075Z,101780.09
2024-03-06T01:35:51.956Z,101778.31
2024-03-06T01:36:06.452Z,101781.91
2024-03-06T01:36:19.456Z,101773.00
2024-03-06T01:36:32.458Z,101773.91
2024-03-06T01:36:45.329Z,101777.38
2024-03-06T01:36:58.562Z,101777.44
2024-03-06T01:37:11.545Z,101777.44
2024-03-06T01:37:24.649Z,101780.09
2024-03-06T01:37:37.605Z,101786.31
2024-03-06T01:37:50.584Z,101788.97
2024-03-06T01:38:03.609Z,101780.97
2024-03-06T01:38:17.684Z,101786.31
2024-03-06T01:38:30.864Z,101782.69
2024-03-06T01:38:46.468Z,101778.31
2024-03-06T01:38:59.419Z,101786.31
2024-03-06T01:39:12.567Z,101778.31
2024-03-06T01:39:25.459Z,101781.91
2024-03-06T01:39:38.748Z,101783.66
2024-03-06T01:39:51.687Z,101778.31
2024-03-06T01:40:05.933Z,101779.25
2024-03-06T01:40:19.868Z,101775.66
2024-03-06T01:40:33.204Z,101775.66
2024-03-06T01:40:46.418Z,101784.50
2024-03-06T01:40:59.443Z,101778.31
2024-03-06T01:41:12.523Z,101787.16
2024-03-06T01:41:26.295Z,101779.19
2024-03-06T01:41:39.283Z,101775.66
2024-03-06T01:41:52.974Z,101779.19
2024-03-06T01:42:05.988Z,101781.84
2024-03-06T01:42:19.475Z,101785.34
2024-03-06T01:42:33.600Z,101780.03
2024-03-06T01:42:48.230Z,101784.50
2024-03-06T01:43:02.570Z,101777.38
2024-03-06T01:43:21.384Z,101780.97
2024-03-06T01:43:39.523Z,101781.84
2024-03-06T01:43:52.591Z,101781.84
2024-03-06T01:44:06.151Z,101781.91
2024-03-06T01:44:19.817Z,101783.66
2024-03-06T01:44:33.807Z,101787.22
2024-03-06T01:44:46.723Z,101786.31
2024-03-06T01:45:00.312Z,101774.88
2024-03-06T01:45:13.399Z,101783.72
2024-03-06T01:45:26.388Z,101785.53
2024-03-06T01:45:41.178Z,101785.53
2024-03-06T01:45:55.270Z,101781.97
2024-03-06T01:46:09.621Z,101786.38
2024-03-06T01:46:23.575Z,101784.63
2024-03-06T01:46:37.922Z,101791.75
2024-03-06T01:46:51.061Z,101785.59
2024-03-06T01:47:04.077Z,101782.06
2024-03-06T01:47:17.126Z,101789.09
2024-03-06T01:47:30.381Z,101783.78
2024-03-06T01:47:43.467Z,101787.41
2024-03-06T01:47:56.516Z,101790.91
2024-03-06T01:48:09.897Z,101783.84
2024-03-06T01:48:26.936Z,101787.41
2024-03-06T01:48:40.741Z,101791.75
2024-03-06T01:48:54.121Z,101787.41
2024-03-06T01:49:07.880Z,101790.06
2024-03-06T01:49:28.568Z,101792.72
2024-03-06T01:49:45.991Z,101787.41
2024-03-06T01:49:59.213Z,101788.25
2024-03-06T01:50:13.570Z,101787.41
2024-03-06T01:50:26.691Z,101787.41
2024-03-06T01:50:39.737Z,101794.44
2024-03-06T01:50:54.763Z,101788.25
2024-03-06T01:51:07.787Z,101783.78
2024-03-06T01:51:21.269Z,101790.06
2024-03-06T01:51:34.421Z,101781.19
2024-03-06T01:51:53.021Z,101783.00
2024-03-06T01:52:07.012Z,101784.72
2024-03-06T01:52:22.698Z,101787.41
2024-03-06T01:52:35.903Z,101780.34
2024-03-06T01:52:49.354Z,101784.72
2024-03-06T01:53:03.635Z,101787.41
2024-03-06T01:53:19.783Z,101787.41
2024-03-06T01:53:34.752Z,101785.66
2024-03-06T01:53:48.984Z,101783.84
2024-03-06T01:54:05.305Z,101782.06
2024-03-06T01:54:19.123Z,101781.19
2024-03-06T01:54:33.349Z,101790.06
2024-03-06T01:54:47.095Z,101779.47
2024-03-06T01:55:00.257Z,101779.47
2024-03-06T01:55:14.029Z,101780.34
2024-03-06T01:55:27.001Z,101783.00
2024-03-06T01:55:41.171Z,101783.00
2024-03-06T01:55:54.410Z,101773.31
2024-03-06T01:56:13.249Z,101785.66
2024-03-06T01:56:26.490Z,101779.47
2024-03-06T01:56:44.520Z,101787.41
2024-03-06T01:56:59.086Z,101781.19
2024-03-06T01:57:14.711Z,101787.41
2024-03-06T01:57:27.895Z,101781.13
2024-03-06T01:57:42.668Z,101786.50
2024-03-06T01:57:55.687Z,101779.41
2024-03-06T01:58:09.875Z,101787.41
2024-03-06T01:58:25.082Z,101786.44
2024-03-06T01:58:38.619Z,101782.06
2024-03-06T01:58:52.205Z,101782.06
2024-03-06T01:59:06.148Z,101782.94
2024-03-06T01:59:31.757Z,101783.78
2024-03-06T01:59:51.517Z,101789.09
2024-03-06T02:00:06.071Z,101785.59
2024-03-06T02:00:19.374Z,101782.94
2024-03-06T02:00:32.427Z,101778.47
2024-03-06T02:00:45.687Z,101785.53
2024-03-06T02:00:59.302Z,101786.38
2024-03-06T02:01:12.568Z,101781.06
2024-03-06T02:01:26.748Z,101785.41
2024-03-06T02:01:41.763Z,101786.38
2024-03-06T02:01:55.923Z,101785.41
2024-03-06T02:02:09.849Z,101779.25
2024-03-06T02:02:22.996Z,101783.66
2024-03-06T02:02:36.253Z,101788.97
2024-03-06T02:02:50.299Z,101785.41
2024-03-06T02:03:03.456Z,101794.28
2024-03-06T02:03:16.659Z,101781.84
2024-03-06T02:03:31.142Z,101788.97
2024-03-06T02:03:45.344Z,101785.41
2024-03-06T02:03:58.435Z,101795.16
2024-03-06T02:04:13.446Z,101783.66
2024-03-06T02:04:29.221Z,101788.97
2024-03-06T02:04:42.301Z,101791.53
2024-03-06T02:04:56.276Z,101785.34
2024-03-06T02:05:09.869Z,101790.66
2024-03-06T02:05:24.761Z,101785.34
2024-03-06T02:05:38.046Z,101786.19
2024-03-06T02:05:51.945Z,101790.66
2024-03-06T02:06:06.171Z,101794.13
2024-03-06T02:06:20.866Z,101784.41
2024-03-06T02:06:34.780Z,101792.38
2024-03-06T02:06:48.436Z,101783.47
2024-03-06T02:07:01.695Z,101787.06
2024-03-06T02:07:15.621Z,101782.63
2024-03-06T02:07:34.746Z,101789.66
2024-03-06T02:07:49.109Z,101786.13
2024-03-06T02:08:02.159Z,101785.28
2024-03-06T02:08:15.393Z,101786.13
2024-03-06T02:08:28.453Z,101783.47
2024-03-06T02:08:41.495Z,101785.28
2024-03-06T02:08:54.707Z,101778.16
2024-03-06T02:09:08.263Z,101783.47
2024-03-06T02:09:21.478Z,101788.81
2024-03-06T02:09:35.641Z,101785.28
2024-03-06T02:09:50.112Z,101783.47
2024-03-06T02:10:03.263Z,101784.31
2024-03-06T02:10:16.313Z,101779.84
2024-03-06T02:10:29.583Z,101788.81
2024-03-06T02:10:42.768Z,101780.81
2024-03-06T02:10:56.738Z,101786.13
2024-03-06T02:11:09.959Z,101784.31
2024-03-06T02:11:23.194Z,101784.31
2024-03-06T02:11:36.715Z,101786.13
2024-03-06T02:11:51.445Z,101783.47
2024-03-06T02:12:04.945Z,101783.47
2024-03-06T02:12:18.407Z,101785.19
2024-03-06T02:12:31.735Z,101787.84
2024-03-06T02:12:44.992Z,101786.91
2024-03-06T02:12:59.234Z,101785.19
2024-03-06T02:13:13.479Z,101779.84
2024-03-06T02:13:27.457Z,101786.06
2024-03-06T02:13:41.037Z,101788.72
2024-03-06T02:13:54.034Z,101779.00
2024-03-06T02:14:11.052Z,101783.41
2024-03-06T02:14:24.790Z,101786.91
2024-03-06T02:14:37.956Z,101783.41
2024-03-06T02:14:51.007Z,101781.59
2024-03-06T02:15:04.342Z,101781.59
2024-03-06T02:15:18.338Z,101782.44
2024-03-06T02:15:31.779Z,101779.84
2024-03-06T02:15:46.511Z,101783.31
2024-03-06T02:15:59.788Z,101782.44
2024-03-06T02:16:13.314Z,101781.59
2024-03-06T02:16:26.889Z,101781.53
2024-03-06T02:16:41.217Z,101788.63
2024-03-06T02:16:54.248Z,101782.38
2024-03-06T02:17:08.389Z,101786.75
2024-03-06T02:17:23.220Z,101782.38
2024-03-06T02:17:36.938Z,101782.38
2024-03-06T02:17:49.953Z,101777.91
2024-03-06T02:18:06.723Z,101784.09
2024-03-06T02:18:20.012Z,101784.09
2024-03-06T02:18:33.365Z,101786.75
2024-03-06T02:18:55.674Z,101786.75
2024-03-06T02:19:09.904Z,101787.63
2024-03-06T02:19:23.881Z,101782.31
2024-03-06T02:19:42.140Z,101783.16
2024-03-06T02:19:55.319Z,101788.50
2024-03-06T02:20:13.745Z,101782.31
2024-03-06T02:20:28.390Z,101784.88
2024-03-06T02:20:42.071Z,101780.50
2024-03-06T02:20:55.197Z,101777.84
2024-03-06T02:21:08.836Z,101777.00
2024-03-06T02:21:22.248Z,101783.16
2024-03-06T02:21:36.669Z,101785.84
2024-03-06T02:21:49.604Z,101782.31
2024-03-06T02:22:03.775Z,101781.44
2024-03-06T02:22:16.791Z,101780.50
2024-03-06T02:22:29.817Z,101783.16
2024-03-06T02:22:43.048Z,101777.00
2024-03-06T02:22:56.105Z,101781.44
2024-03-06T02:23:09.704Z,101777.00
2024-03-06T02:23:24.188Z,101779.66
2024-03-06T02:23:37.250Z,101784.09
2024-03-06T02:23:52.385Z,101786.75
2024-03-06T02:24:05.703Z,101777.00
2024-03-06T02:24:18.983Z,101781.44
2024-03-06T02:24:32.037Z,101766.41
2024-03-06T02:24:47.214Z,101785.03
2024-03-06T02:25:01.256Z,101777.06
2024-03-06T02:25:16.287Z,101777.91
2024-03-06T02:25:29.428Z,101782.38
2024-03-06T02:25:42.776Z,101779.72
2024-03-06T02:25:55.799Z,101779.72
2024-03-06T02:26:08.953Z,101778.88
2024-03-06T02:26:22.959Z,101777.13
2024-03-06T02:26:35.987Z,101780.66
2024-03-06T02:26:50.400Z,101777.06
2024-03-06T02:27:03.659Z,101777.97
2024-03-06T02:27:17.858Z,101777.97
2024-03-06T02:27:30.877Z,101777.97
2024-03-06T02:27:46.721Z,101778.88
2024-03-06T02:28:00.343Z,101777.97
2024-03-06T02:28:13.441Z,101782.44
2024-03-06T02:28:27.493Z,101782.44
2024-03-06T02:28:40.720Z,101783.31
2024-03-06T02:28:54.990Z,101778.94
2024-03-06T02:29:08.302Z,101781.59
2024-03-06T02:29:24.571Z,101783.31
2024-03-06T02:29:39.691Z,101786.91
2024-03-06T02:29:52.768Z,101774.47
2024-03-06T02:30:07.442Z,101780.66
2024-03-06T02:30:22.801Z,101777.97
2024-03-06T02:30:38.453Z,101780.66
2024-03-06T02:30:51.948Z,101779.78
2024-03-06T02:31:08.989Z,101776.28
2024-03-06T02:31:24.141Z,101776.28
2024-03-06T02:31:37.295Z,101783.31
2024-03-06T02:31:50.312Z,101778.88
2024-03-06T02:32:04.115Z,101782.44
2024-03-06T02:32:19.534Z,101784.19
2024-03-06T02:32:32.558Z,101783.31
2024-03-06T02:32:45.572Z,101784.19
2024-03-06T02:32:58.741Z,101778.88
2024-03-06T02:33:11.851Z,101782.38
2024-03-06T02:33:25.004Z,101782.38
2024-03-06T02:33:38.010Z,101779.72
2024-03-06T02:33:51.538Z,101781.53
2024-03-06T02:34:07.732Z,101779.72
2024-03-06T02:34:20.979Z,101777.97
2024-03-06T02:34:33.954Z,101780.56
2024-03-06T02:34:46.970Z,101784.19
2024-03-06T02:34:59.947Z,101781.44
2024-03-06T02:35:13.320Z,101776.09
2024-03-06T02:35:27.893Z,101778.78
2024-03-06T02:35:41.296Z,101775.25
2024-03-06T02:35:54.283Z,101780.56
2024-03-06T02:36:07.891Z,101783.25
2024-03-06T02:36:22.018Z,101785.91
2024-03-06T02:36:34.931Z,101779.72
2024-03-06T02:36:47.914Z,101776.09
2024-03-06T02:37:01.015Z,101785.03